sensor_id;sensor_type;location;lat;lon;timestamp;temperature;humidity
3360;DHT22;1693;49.602;11.046;2022-12-07T00:00:51;3.80;99.90
3360;DHT22;1693;49.602;11.046;2022-12-07T00:03:18;3.70;99.90
3360;DHT22;1693;49.602;11.046;2022-12-07T00:05:45;3.70;99.90
3360;DHT22;1693;49.602;11.046;2022-12-07T00:08:12;3.60;99.90
3360;DHT22;1693;49.602;11.046;2022-12-07T00:10:39;3.70;99.90
3360;DHT22;1693;49.602;11.046;2022-12-07T00:13:06;3.60;99.90
3360;DHT22;1693;49.602;11.046;2022-12-07T00:15:34;3.50;99.90
3360;DHT22;1693;49.602;11.046;2022-12-07T00:18:03;3.40;99.90
3360;DHT22;1693;49.602;11.046;2022-12-07T00:20:30;3.40;99.90
3360;DHT22;1693;49.602;11.046;2022-12-07T00:22:59;3.30;99.90
3360;DHT22;1693;49.602;11.046;2022-12-07T00:25:26;3.40;99.90
3360;DHT22;1693;49.602;11.046;2022-12-07T00:27:53;3.40;99.90
3360;DHT22;1693;49.602;11.046;2022-12-07T00:30:22;3.50;99.90
3360;DHT22;1693;49.602;11.046;2022-12-07T00:32:49;3.50;99.90
3360;DHT22;1693;49.602;11.046;2022-12-07T00:35:18;3.50;99.90
3360;DHT22;1693;49.602;11.046;2022-12-07T00:37:45;3.50;99.90
3360;DHT22;1693;49.602;11.046;2022-12-07T00:40:12;3.50;99.90
3360;DHT22;1693;49.602;11.046;2022-12-07T00:42:40;3.50;99.90
3360;DHT22;1693;49.602;11.046;2022-12-07T00:45:08;3.50;99.90
3360;DHT22;1693;49.602;11.046;2022-12-07T00:47:35;3.50;99.90
3360;DHT22;1693;49.602;11.046;2022-12-07T00:50:02;3.50;99.90
3360;DHT22;1693;49.602;11.046;2022-12-07T00:52:31;3.50;99.90
3360;DHT22;1693;49.602;11.046;2022-12-07T00:54:58;3.50;99.90
3360;DHT22;1693;49.602;11.046;2022-12-07T00:57:25;3.50;99.90
3360;DHT22;1693;49.602;11.046;2022-12-07T00:59:52;3.50;99.90
3360;DHT22;1693;49.602;11.046;2022-12-07T01:02:21;3.50;99.90
3360;DHT22;1693;49.602;11.046;2022-12-07T01:04:48;3.60;99.90
3360;DHT22;1693;49.602;11.046;2022-12-07T01:07:16;3.60;99.90
3360;DHT22;1693;49.602;11.046;2022-12-07T01:09:45;3.60;99.90
3360;DHT22;1693;49.602;11.046;2022-12-07T01:12:12;3.60;99.90
3360;DHT22;1693;49.602;11.046;2022-12-07T01:14:39;3.60;99.90
3360;DHT22;1693;49.602;11.046;2022-12-07T01:17:08;3.50;99.90
3360;DHT22;1693;49.602;11.046;2022-12-07T01:19:35;3.50;99.90
3360;DHT22;1693;49.602;11.046;2022-12-07T01:22:02;3.50;99.90
3360;DHT22;1693;49.602;11.046;2022-12-07T01:24:29;3.50;99.90
3360;DHT22;1693;49.602;11.046;2022-12-07T01:26:58;3.40;99.90
3360;DHT22;1693;49.602;11.046;2022-12-07T01:29:25;3.40;99.90
3360;DHT22;1693;49.602;11.046;2022-12-07T01:31:51;3.30;99.90
3360;DHT22;1693;49.602;11.046;2022-12-07T01:34:18;3.30;99.90
3360;DHT22;1693;49.602;11.046;2022-12-07T01:36:46;3.30;99.90
3360;DHT22;1693;49.602;11.046;2022-12-07T01:39:13;3.30;99.90
3360;DHT22;1693;49.602;11.046;2022-12-07T01:41:41;3.40;99.90
3360;DHT22;1693;49.602;11.046;2022-12-07T01:44:14;3.40;99.90
3360;DHT22;1693;49.602;11.046;2022-12-07T01:46:42;3.40;99.90
3360;DHT22;1693;49.602;11.046;2022-12-07T01:49:12;3.40;99.90
3360;DHT22;1693;49.602;11.046;2022-12-07T01:51:42;3.40;99.90
3360;DHT22;1693;49.602;11.046;2022-12-07T01:54:11;3.40;99.90
3360;DHT22;1693;49.602;11.046;2022-12-07T01:56:40;3.50;99.90
3360;DHT22;1693;49.602;11.046;2022-12-07T01:59:11;3.50;99.90
3360;DHT22;1693;49.602;11.046;2022-12-07T02:01:38;3.50;99.90
3360;DHT22;1693;49.602;11.046;2022-12-07T02:04:06;3.50;99.90
3360;DHT22;1693;49.602;11.046;2022-12-07T02:06:33;3.50;99.90
3360;DHT22;1693;49.602;11.046;2022-12-07T02:09:02;3.50;99.90
3360;DHT22;1693;49.602;11.046;2022-12-07T02:11:29;3.50;99.90
3360;DHT22;1693;49.602;11.046;2022-12-07T02:13:57;3.50;99.90
3360;DHT22;1693;49.602;11.046;2022-12-07T02:16:31;3.50;99.90
3360;DHT22;1693;49.602;11.046;2022-12-07T02:19:24;3.50;99.90
3360;DHT22;1693;49.602;11.046;2022-12-07T02:22:00;3.50;99.90
3360;DHT22;1693;49.602;11.046;2022-12-07T02:24:45;3.50;99.90
3360;DHT22;1693;49.602;11.046;2022-12-07T02:27:33;3.40;99.90
3360;DHT22;1693;49.602;11.046;2022-12-07T02:30:06;3.40;99.90
3360;DHT22;1693;49.602;11.046;2022-12-07T02:32:48;3.30;99.90
3360;DHT22;1693;49.602;11.046;2022-12-07T02:35:19;3.30;99.90
3360;DHT22;1693;49.602;11.046;2022-12-07T02:37:53;3.30;99.90
3360;DHT22;1693;49.602;11.046;2022-12-07T02:40:27;3.30;99.90
3360;DHT22;1693;49.602;11.046;2022-12-07T02:43:00;3.20;99.90
3360;DHT22;1693;49.602;11.046;2022-12-07T02:45:31;3.20;99.90
3360;DHT22;1693;49.602;11.046;2022-12-07T02:48:00;3.20;99.90
3360;DHT22;1693;49.602;11.046;2022-12-07T02:50:27;3.00;99.90
3360;DHT22;1693;49.602;11.046;2022-12-07T02:52:55;3.00;99.90
3360;DHT22;1693;49.602;11.046;2022-12-07T02:55:26;3.00;99.90
3360;DHT22;1693;49.602;11.046;2022-12-07T02:58:08;3.00;99.90
3360;DHT22;1693;49.602;11.046;2022-12-07T03:00:44;2.90;99.90
3360;DHT22;1693;49.602;11.046;2022-12-07T03:03:14;3.00;99.90
3360;DHT22;1693;49.602;11.046;2022-12-07T03:05:59;3.00;99.90
3360;DHT22;1693;49.602;11.046;2022-12-07T03:08:45;3.00;99.90
3360;DHT22;1693;49.602;11.046;2022-12-07T03:11:15;3.00;99.90
3360;DHT22;1693;49.602;11.046;2022-12-07T03:13:49;3.00;99.90
3360;DHT22;1693;49.602;11.046;2022-12-07T03:16:21;3.10;99.90
3360;DHT22;1693;49.602;11.046;2022-12-07T03:18:53;3.00;99.90
3360;DHT22;1693;49.602;11.046;2022-12-07T03:21:23;3.10;99.90
3360;DHT22;1693;49.602;11.046;2022-12-07T03:23:55;3.10;99.90
3360;DHT22;1693;49.602;11.046;2022-12-07T03:26:28;3.20;99.90
3360;DHT22;1693;49.602;11.046;2022-12-07T03:28:59;3.20;99.90
3360;DHT22;1693;49.602;11.046;2022-12-07T03:31:31;3.20;99.90
3360;DHT22;1693;49.602;11.046;2022-12-07T03:34:01;3.20;99.90
3360;DHT22;1693;49.602;11.046;2022-12-07T03:36:34;3.10;99.90
3360;DHT22;1693;49.602;11.046;2022-12-07T03:39:17;3.00;99.90
3360;DHT22;1693;49.602;11.046;2022-12-07T03:41:46;2.90;99.90
3360;DHT22;1693;49.602;11.046;2022-12-07T03:44:14;2.80;99.90
3360;DHT22;1693;49.602;11.046;2022-12-07T03:46:46;2.80;99.90
3360;DHT22;1693;49.602;11.046;2022-12-07T03:49:22;2.70;99.90
3360;DHT22;1693;49.602;11.046;2022-12-07T03:51:54;2.60;99.90
3360;DHT22;1693;49.602;11.046;2022-12-07T03:54:26;2.60;99.90
3360;DHT22;1693;49.602;11.046;2022-12-07T03:56:54;2.60;99.90
3360;DHT22;1693;49.602;11.046;2022-12-07T03:59:23;2.60;99.90
3360;DHT22;1693;49.602;11.046;2022-12-07T04:01:55;2.50;99.90
3360;DHT22;1693;49.602;11.046;2022-12-07T04:04:23;2.50;99.90
3360;DHT22;1693;49.602;11.046;2022-12-07T04:06:52;2.50;99.90
3360;DHT22;1693;49.602;11.046;2022-12-07T04:09:19;2.50;99.90
3360;DHT22;1693;49.602;11.046;2022-12-07T04:11:46;2.50;99.90
3360;DHT22;1693;49.602;11.046;2022-12-07T04:14:13;2.50;99.90
3360;DHT22;1693;49.602;11.046;2022-12-07T04:16:47;2.50;99.90
3360;DHT22;1693;49.602;11.046;2022-12-07T04:19:17;2.50;99.90
3360;DHT22;1693;49.602;11.046;2022-12-07T04:21:44;2.60;99.90
3360;DHT22;1693;49.602;11.046;2022-12-07T04:24:13;2.50;99.90
3360;DHT22;1693;49.602;11.046;2022-12-07T04:26:40;2.50;99.90
3360;DHT22;1693;49.602;11.046;2022-12-07T04:29:08;2.50;99.90
3360;DHT22;1693;49.602;11.046;2022-12-07T04:31:35;2.60;99.90
3360;DHT22;1693;49.602;11.046;2022-12-07T04:34:03;2.60;99.90
3360;DHT22;1693;49.602;11.046;2022-12-07T04:36:32;2.60;99.90
3360;DHT22;1693;49.602;11.046;2022-12-07T04:39:00;2.70;99.90
3360;DHT22;1693;49.602;11.046;2022-12-07T04:41:27;2.70;99.90
3360;DHT22;1693;49.602;11.046;2022-12-07T04:43:55;2.70;99.90
3360;DHT22;1693;49.602;11.046;2022-12-07T04:46:23;2.70;99.90
3360;DHT22;1693;49.602;11.046;2022-12-07T04:48:50;2.70;99.90
3360;DHT22;1693;49.602;11.046;2022-12-07T04:51:20;2.60;99.90
3360;DHT22;1693;49.602;11.046;2022-12-07T04:53:48;2.70;99.90
3360;DHT22;1693;49.602;11.046;2022-12-07T04:56:16;2.60;99.90
3360;DHT22;1693;49.602;11.046;2022-12-07T04:58:45;2.70;99.90
3360;DHT22;1693;49.602;11.046;2022-12-07T05:01:13;2.70;99.90
3360;DHT22;1693;49.602;11.046;2022-12-07T05:03:40;2.80;99.90
3360;DHT22;1693;49.602;11.046;2022-12-07T05:06:08;2.80;99.90
3360;DHT22;1693;49.602;11.046;2022-12-07T05:08:35;2.90;99.90
3360;DHT22;1693;49.602;11.046;2022-12-07T05:11:05;2.80;99.90
3360;DHT22;1693;49.602;11.046;2022-12-07T05:13:33;2.80;99.90
3360;DHT22;1693;49.602;11.046;2022-12-07T05:16:00;2.90;99.90
3360;DHT22;1693;49.602;11.046;2022-12-07T05:18:27;2.80;99.90
3360;DHT22;1693;49.602;11.046;2022-12-07T05:20:54;2.70;99.90
3360;DHT22;1693;49.602;11.046;2022-12-07T05:23:22;2.60;99.90
3360;DHT22;1693;49.602;11.046;2022-12-07T05:25:49;2.70;99.90
3360;DHT22;1693;49.602;11.046;2022-12-07T05:28:17;2.80;99.90
3360;DHT22;1693;49.602;11.046;2022-12-07T05:30:44;2.80;99.90
3360;DHT22;1693;49.602;11.046;2022-12-07T05:33:12;2.90;99.90
3360;DHT22;1693;49.602;11.046;2022-12-07T05:35:39;3.00;99.90
3360;DHT22;1693;49.602;11.046;2022-12-07T05:38:06;3.00;99.90
3360;DHT22;1693;49.602;11.046;2022-12-07T05:40:33;2.90;99.90
3360;DHT22;1693;49.602;11.046;2022-12-07T05:43:00;2.90;99.90
3360;DHT22;1693;49.602;11.046;2022-12-07T05:45:28;2.80;99.90
3360;DHT22;1693;49.602;11.046;2022-12-07T05:47:55;2.70;99.90
3360;DHT22;1693;49.602;11.046;2022-12-07T05:50:22;2.70;99.90
3360;DHT22;1693;49.602;11.046;2022-12-07T05:52:49;2.70;99.90
3360;DHT22;1693;49.602;11.046;2022-12-07T05:55:16;2.70;99.90
3360;DHT22;1693;49.602;11.046;2022-12-07T05:57:44;2.70;99.90
3360;DHT22;1693;49.602;11.046;2022-12-07T06:00:32;2.80;99.90
3360;DHT22;1693;49.602;11.046;2022-12-07T06:02:58;2.80;99.90
3360;DHT22;1693;49.602;11.046;2022-12-07T06:05:25;2.90;99.90
3360;DHT22;1693;49.602;11.046;2022-12-07T06:07:52;2.80;99.90
3360;DHT22;1693;49.602;11.046;2022-12-07T06:10:20;2.90;99.90
3360;DHT22;1693;49.602;11.046;2022-12-07T06:12:47;2.90;99.90
3360;DHT22;1693;49.602;11.046;2022-12-07T06:15:13;2.90;99.90
3360;DHT22;1693;49.602;11.046;2022-12-07T06:17:42;3.00;99.90
3360;DHT22;1693;49.602;11.046;2022-12-07T06:20:09;3.00;99.90
3360;DHT22;1693;49.602;11.046;2022-12-07T06:22:37;2.90;99.90
3360;DHT22;1693;49.602;11.046;2022-12-07T06:25:04;2.90;99.90
3360;DHT22;1693;49.602;11.046;2022-12-07T06:27:32;2.90;99.90
3360;DHT22;1693;49.602;11.046;2022-12-07T06:30:03;2.80;99.90
3360;DHT22;1693;49.602;11.046;2022-12-07T06:32:32;2.90;99.90
3360;DHT22;1693;49.602;11.046;2022-12-07T06:35:00;2.80;99.90
3360;DHT22;1693;49.602;11.046;2022-12-07T06:37:27;2.90;99.90
3360;DHT22;1693;49.602;11.046;2022-12-07T06:39:54;2.90;99.90
3360;DHT22;1693;49.602;11.046;2022-12-07T06:42:21;2.90;99.90
3360;DHT22;1693;49.602;11.046;2022-12-07T06:44:49;2.70;99.90
3360;DHT22;1693;49.602;11.046;2022-12-07T06:47:16;2.70;99.90
3360;DHT22;1693;49.602;11.046;2022-12-07T06:49:43;2.70;99.90
3360;DHT22;1693;49.602;11.046;2022-12-07T06:52:11;2.70;99.90
3360;DHT22;1693;49.602;11.046;2022-12-07T06:54:38;2.70;99.90
3360;DHT22;1693;49.602;11.046;2022-12-07T06:57:06;2.80;99.90
3360;DHT22;1693;49.602;11.046;2022-12-07T06:59:34;2.90;99.90
3360;DHT22;1693;49.602;11.046;2022-12-07T07:02:01;3.00;99.90
3360;DHT22;1693;49.602;11.046;2022-12-07T07:04:28;3.10;99.90
3360;DHT22;1693;49.602;11.046;2022-12-07T07:06:55;3.20;99.90
3360;DHT22;1693;49.602;11.046;2022-12-07T07:09:25;3.20;99.90
3360;DHT22;1693;49.602;11.046;2022-12-07T07:11:52;3.20;99.90
3360;DHT22;1693;49.602;11.046;2022-12-07T07:14:21;3.10;99.90
3360;DHT22;1693;49.602;11.046;2022-12-07T07:16:48;3.00;99.90
3360;DHT22;1693;49.602;11.046;2022-12-07T07:19:17;3.00;99.90
3360;DHT22;1693;49.602;11.046;2022-12-07T07:21:44;3.00;99.90
3360;DHT22;1693;49.602;11.046;2022-12-07T07:24:11;3.10;99.90
3360;DHT22;1693;49.602;11.046;2022-12-07T07:26:39;3.00;99.90
3360;DHT22;1693;49.602;11.046;2022-12-07T07:29:06;3.00;99.90
3360;DHT22;1693;49.602;11.046;2022-12-07T07:31:33;3.10;99.90
3360;DHT22;1693;49.602;11.046;2022-12-07T07:34:01;3.10;99.90
3360;DHT22;1693;49.602;11.046;2022-12-07T07:36:28;3.10;99.90
3360;DHT22;1693;49.602;11.046;2022-12-07T07:38:55;3.10;99.90
3360;DHT22;1693;49.602;11.046;2022-12-07T07:41:22;3.20;99.90
3360;DHT22;1693;49.602;11.046;2022-12-07T07:43:50;3.20;99.90
3360;DHT22;1693;49.602;11.046;2022-12-07T07:46:17;3.20;99.90
3360;DHT22;1693;49.602;11.046;2022-12-07T07:48:44;3.30;99.90
3360;DHT22;1693;49.602;11.046;2022-12-07T07:51:12;3.40;99.90
3360;DHT22;1693;49.602;11.046;2022-12-07T07:53:38;3.30;99.90
3360;DHT22;1693;49.602;11.046;2022-12-07T07:56:05;3.30;99.90
3360;DHT22;1693;49.602;11.046;2022-12-07T07:58:34;3.30;99.90
3360;DHT22;1693;49.602;11.046;2022-12-07T08:01:05;3.30;99.90
3360;DHT22;1693;49.602;11.046;2022-12-07T08:03:32;3.30;99.90
3360;DHT22;1693;49.602;11.046;2022-12-07T08:05:59;3.40;99.90
3360;DHT22;1693;49.602;11.046;2022-12-07T08:08:28;3.40;99.90
3360;DHT22;1693;49.602;11.046;2022-12-07T08:10:55;3.40;99.90
3360;DHT22;1693;49.602;11.046;2022-12-07T08:13:22;3.50;99.90
3360;DHT22;1693;49.602;11.046;2022-12-07T08:15:49;3.50;99.90
3360;DHT22;1693;49.602;11.046;2022-12-07T08:18:17;3.50;99.90
3360;DHT22;1693;49.602;11.046;2022-12-07T08:20:44;3.50;99.90
3360;DHT22;1693;49.602;11.046;2022-12-07T08:23:11;3.30;99.90
3360;DHT22;1693;49.602;11.046;2022-12-07T08:25:38;3.30;99.90
3360;DHT22;1693;49.602;11.046;2022-12-07T08:28:06;3.30;99.90
3360;DHT22;1693;49.602;11.046;2022-12-07T08:30:34;3.30;99.90
3360;DHT22;1693;49.602;11.046;2022-12-07T08:33:01;3.40;99.90
3360;DHT22;1693;49.602;11.046;2022-12-07T08:35:29;3.50;99.90
3360;DHT22;1693;49.602;11.046;2022-12-07T08:37:56;3.60;99.90
3360;DHT22;1693;49.602;11.046;2022-12-07T08:40:23;3.50;99.90
3360;DHT22;1693;49.602;11.046;2022-12-07T08:42:51;3.50;99.90
3360;DHT22;1693;49.602;11.046;2022-12-07T08:45:19;3.60;99.90
3360;DHT22;1693;49.602;11.046;2022-12-07T08:47:50;3.60;99.90
3360;DHT22;1693;49.602;11.046;2022-12-07T08:50:19;3.60;99.90
3360;DHT22;1693;49.602;11.046;2022-12-07T08:52:50;3.60;99.90
3360;DHT22;1693;49.602;11.046;2022-12-07T08:55:18;3.60;99.90
3360;DHT22;1693;49.602;11.046;2022-12-07T08:57:48;3.60;99.90
3360;DHT22;1693;49.602;11.046;2022-12-07T09:00:15;3.60;99.90
3360;DHT22;1693;49.602;11.046;2022-12-07T09:02:43;3.60;99.90
3360;DHT22;1693;49.602;11.046;2022-12-07T09:05:11;3.60;99.90
3360;DHT22;1693;49.602;11.046;2022-12-07T09:07:40;3.60;99.90
3360;DHT22;1693;49.602;11.046;2022-12-07T09:10:11;3.70;99.90
3360;DHT22;1693;49.602;11.046;2022-12-07T09:12:38;3.80;99.90
3360;DHT22;1693;49.602;11.046;2022-12-07T09:15:07;3.80;99.90
3360;DHT22;1693;49.602;11.046;2022-12-07T09:17:34;3.80;99.90
3360;DHT22;1693;49.602;11.046;2022-12-07T09:20:02;3.70;99.90
3360;DHT22;1693;49.602;11.046;2022-12-07T09:22:29;3.60;99.90
3360;DHT22;1693;49.602;11.046;2022-12-07T09:24:56;3.60;99.90
3360;DHT22;1693;49.602;11.046;2022-12-07T09:27:26;3.60;99.90
3360;DHT22;1693;49.602;11.046;2022-12-07T09:29:54;3.60;99.90
3360;DHT22;1693;49.602;11.046;2022-12-07T09:32:21;3.50;99.90
3360;DHT22;1693;49.602;11.046;2022-12-07T09:34:47;3.50;99.90
3360;DHT22;1693;49.602;11.046;2022-12-07T09:37:14;3.60;99.90
3360;DHT22;1693;49.602;11.046;2022-12-07T09:39:41;3.60;99.90
3360;DHT22;1693;49.602;11.046;2022-12-07T09:42:25;3.70;99.90
3360;DHT22;1693;49.602;11.046;2022-12-07T09:44:54;3.70;99.90
3360;DHT22;1693;49.602;11.046;2022-12-07T09:47:22;3.70;99.90
3360;DHT22;1693;49.602;11.046;2022-12-07T09:49:49;3.70;99.90
3360;DHT22;1693;49.602;11.046;2022-12-07T09:52:26;3.60;99.90
3360;DHT22;1693;49.602;11.046;2022-12-07T09:54:54;3.70;99.90
3360;DHT22;1693;49.602;11.046;2022-12-07T09:57:27;3.70;99.90
3360;DHT22;1693;49.602;11.046;2022-12-07T09:59:59;3.70;99.90
3360;DHT22;1693;49.602;11.046;2022-12-07T10:02:35;3.60;99.90
3360;DHT22;1693;49.602;11.046;2022-12-07T10:05:05;3.70;99.90
3360;DHT22;1693;49.602;11.046;2022-12-07T10:07:33;3.70;99.90
3360;DHT22;1693;49.602;11.046;2022-12-07T10:10:03;3.80;99.90
3360;DHT22;1693;49.602;11.046;2022-12-07T10:12:30;3.80;99.90
3360;DHT22;1693;49.602;11.046;2022-12-07T10:15:01;3.70;99.90
3360;DHT22;1693;49.602;11.046;2022-12-07T10:17:32;3.80;99.90
3360;DHT22;1693;49.602;11.046;2022-12-07T10:20:13;3.80;99.90
3360;DHT22;1693;49.602;11.046;2022-12-07T10:22:54;4.00;99.90
3360;DHT22;1693;49.602;11.046;2022-12-07T10:25:26;3.90;99.90
3360;DHT22;1693;49.602;11.046;2022-12-07T10:28:02;4.00;99.90
3360;DHT22;1693;49.602;11.046;2022-12-07T10:30:31;3.90;99.90
3360;DHT22;1693;49.602;11.046;2022-12-07T10:32:59;4.00;99.90
3360;DHT22;1693;49.602;11.046;2022-12-07T10:35:28;4.00;99.90
3360;DHT22;1693;49.602;11.046;2022-12-07T10:37:56;4.00;99.90
3360;DHT22;1693;49.602;11.046;2022-12-07T10:40:31;4.10;99.90
3360;DHT22;1693;49.602;11.046;2022-12-07T10:43:18;4.10;99.90
3360;DHT22;1693;49.602;11.046;2022-12-07T10:46:07;4.10;99.90
3360;DHT22;1693;49.602;11.046;2022-12-07T10:48:44;4.10;99.90
3360;DHT22;1693;49.602;11.046;2022-12-07T10:51:23;4.20;99.90
3360;DHT22;1693;49.602;11.046;2022-12-07T10:54:01;4.40;99.90
3360;DHT22;1693;49.602;11.046;2022-12-07T10:57:00;4.20;99.90
3360;DHT22;1693;49.602;11.046;2022-12-07T10:59:53;4.20;99.90
3360;DHT22;1693;49.602;11.046;2022-12-07T11:02:43;4.10;99.90
3360;DHT22;1693;49.602;11.046;2022-12-07T11:05:19;4.20;99.90
3360;DHT22;1693;49.602;11.046;2022-12-07T11:07:59;4.30;99.90
3360;DHT22;1693;49.602;11.046;2022-12-07T11:10:33;4.30;99.90
3360;DHT22;1693;49.602;11.046;2022-12-07T11:13:23;4.40;99.90
3360;DHT22;1693;49.602;11.046;2022-12-07T11:16:13;4.40;99.90
3360;DHT22;1693;49.602;11.046;2022-12-07T11:18:51;4.30;99.90
3360;DHT22;1693;49.602;11.046;2022-12-07T11:21:24;4.30;99.90
3360;DHT22;1693;49.602;11.046;2022-12-07T11:24:01;4.20;99.90
3360;DHT22;1693;49.602;11.046;2022-12-07T11:26:47;4.30;99.90
3360;DHT22;1693;49.602;11.046;2022-12-07T11:29:34;4.40;99.90
3360;DHT22;1693;49.602;11.046;2022-12-07T11:32:14;4.30;99.90
3360;DHT22;1693;49.602;11.046;2022-12-07T11:34:55;4.40;99.90
3360;DHT22;1693;49.602;11.046;2022-12-07T11:37:32;4.40;99.90
3360;DHT22;1693;49.602;11.046;2022-12-07T11:40:03;4.40;99.90
3360;DHT22;1693;49.602;11.046;2022-12-07T11:42:35;4.40;99.90
3360;DHT22;1693;49.602;11.046;2022-12-07T11:45:14;4.50;99.90
3360;DHT22;1693;49.602;11.046;2022-12-07T11:47:47;4.50;99.90
3360;DHT22;1693;49.602;11.046;2022-12-07T11:50:25;4.40;99.90
3360;DHT22;1693;49.602;11.046;2022-12-07T11:52:56;4.50;99.90
3360;DHT22;1693;49.602;11.046;2022-12-07T11:55:29;4.50;99.90
3360;DHT22;1693;49.602;11.046;2022-12-07T11:58:04;4.50;99.90
3360;DHT22;1693;49.602;11.046;2022-12-07T12:00:32;4.40;99.90
3360;DHT22;1693;49.602;11.046;2022-12-07T12:03:04;4.40;99.90
3360;DHT22;1693;49.602;11.046;2022-12-07T12:05:39;4.40;99.90
3360;DHT22;1693;49.602;11.046;2022-12-07T12:08:13;4.40;99.90
3360;DHT22;1693;49.602;11.046;2022-12-07T12:10:51;4.40;99.90
3360;DHT22;1693;49.602;11.046;2022-12-07T12:13:41;4.40;99.90
3360;DHT22;1693;49.602;11.046;2022-12-07T12:16:32;4.40;99.90
3360;DHT22;1693;49.602;11.046;2022-12-07T12:19:19;4.40;99.90
3360;DHT22;1693;49.602;11.046;2022-12-07T12:21:54;4.40;99.90
3360;DHT22;1693;49.602;11.046;2022-12-07T12:24:24;4.40;99.90
3360;DHT22;1693;49.602;11.046;2022-12-07T12:26:56;4.40;99.90
3360;DHT22;1693;49.602;11.046;2022-12-07T12:29:30;4.50;99.90
3360;DHT22;1693;49.602;11.046;2022-12-07T12:32:07;4.60;99.90
3360;DHT22;1693;49.602;11.046;2022-12-07T12:34:51;4.50;99.90
3360;DHT22;1693;49.602;11.046;2022-12-07T12:37:44;4.50;99.90
3360;DHT22;1693;49.602;11.046;2022-12-07T12:40:40;4.60;99.90
3360;DHT22;1693;49.602;11.046;2022-12-07T12:49:37;4.50;99.90
3360;DHT22;1693;49.602;11.046;2022-12-07T12:55:15;4.40;99.90
3360;DHT22;1693;49.602;11.046;2022-12-07T12:57:47;4.40;99.90
3360;DHT22;1693;49.602;11.046;2022-12-07T13:00:18;4.50;99.90
3360;DHT22;1693;49.602;11.046;2022-12-07T13:02:50;4.60;99.90
3360;DHT22;1693;49.602;11.046;2022-12-07T13:05:19;4.50;99.90
3360;DHT22;1693;49.602;11.046;2022-12-07T13:07:56;4.60;99.90
3360;DHT22;1693;49.602;11.046;2022-12-07T13:10:38;4.60;99.90
3360;DHT22;1693;49.602;11.046;2022-12-07T13:13:33;4.50;99.90
3360;DHT22;1693;49.602;11.046;2022-12-07T13:22:43;4.60;99.90
3360;DHT22;1693;49.602;11.046;2022-12-07T13:25:12;4.50;99.90
3360;DHT22;1693;49.602;11.046;2022-12-07T13:27:51;4.50;99.90
3360;DHT22;1693;49.602;11.046;2022-12-07T13:30:21;4.50;99.90
3360;DHT22;1693;49.602;11.046;2022-12-07T13:32:52;4.60;99.90
3360;DHT22;1693;49.602;11.046;2022-12-07T13:35:33;4.70;99.90
3360;DHT22;1693;49.602;11.046;2022-12-07T13:38:04;4.60;99.90
3360;DHT22;1693;49.602;11.046;2022-12-07T13:40:32;4.60;99.90
3360;DHT22;1693;49.602;11.046;2022-12-07T13:43:01;4.60;99.90
3360;DHT22;1693;49.602;11.046;2022-12-07T13:45:30;4.50;99.90
3360;DHT22;1693;49.602;11.046;2022-12-07T13:48:21;4.50;99.90
3360;DHT22;1693;49.602;11.046;2022-12-07T13:50:53;4.70;99.90
3360;DHT22;1693;49.602;11.046;2022-12-07T13:53:21;4.70;99.90
3360;DHT22;1693;49.602;11.046;2022-12-07T13:55:50;4.70;99.90
3360;DHT22;1693;49.602;11.046;2022-12-07T13:58:18;4.60;99.90
3360;DHT22;1693;49.602;11.046;2022-12-07T14:00:47;4.50;99.90
3360;DHT22;1693;49.602;11.046;2022-12-07T14:03:30;4.50;99.90
3360;DHT22;1693;49.602;11.046;2022-12-07T14:08:48;4.50;99.90
3360;DHT22;1693;49.602;11.046;2022-12-07T14:11:19;4.50;99.90
3360;DHT22;1693;49.602;11.046;2022-12-07T14:13:57;4.50;99.90
3360;DHT22;1693;49.602;11.046;2022-12-07T14:16:28;4.60;99.90
3360;DHT22;1693;49.602;11.046;2022-12-07T14:18:59;4.60;99.90
3360;DHT22;1693;49.602;11.046;2022-12-07T14:21:27;4.60;99.90
3360;DHT22;1693;49.602;11.046;2022-12-07T14:24:16;4.60;99.90
3360;DHT22;1693;49.602;11.046;2022-12-07T14:26:46;4.60;99.90
3360;DHT22;1693;49.602;11.046;2022-12-07T14:29:31;4.60;99.90
3360;DHT22;1693;49.602;11.046;2022-12-07T14:32:21;4.70;99.90
3360;DHT22;1693;49.602;11.046;2022-12-07T14:34:59;4.60;99.90
3360;DHT22;1693;49.602;11.046;2022-12-07T14:37:28;4.60;99.90
3360;DHT22;1693;49.602;11.046;2022-12-07T14:39:56;4.60;99.90
3360;DHT22;1693;49.602;11.046;2022-12-07T14:42:27;4.60;99.90
3360;DHT22;1693;49.602;11.046;2022-12-07T14:44:58;4.60;99.90
3360;DHT22;1693;49.602;11.046;2022-12-07T14:47:26;4.50;99.90
3360;DHT22;1693;49.602;11.046;2022-12-07T14:49:55;4.40;99.90
3360;DHT22;1693;49.602;11.046;2022-12-07T14:52:26;4.40;99.90
3360;DHT22;1693;49.602;11.046;2022-12-07T14:54:55;4.50;99.90
3360;DHT22;1693;49.602;11.046;2022-12-07T14:57:24;4.40;99.90
3360;DHT22;1693;49.602;11.046;2022-12-07T14:59:52;4.40;99.90
3360;DHT22;1693;49.602;11.046;2022-12-07T15:02:22;4.30;99.90
3360;DHT22;1693;49.602;11.046;2022-12-07T15:04:50;4.10;99.90
3360;DHT22;1693;49.602;11.046;2022-12-07T15:07:20;4.10;99.90
3360;DHT22;1693;49.602;11.046;2022-12-07T15:09:49;4.00;99.90
3360;DHT22;1693;49.602;11.046;2022-12-07T15:12:17;3.90;99.90
3360;DHT22;1693;49.602;11.046;2022-12-07T15:14:46;3.90;99.90
3360;DHT22;1693;49.602;11.046;2022-12-07T15:17:14;3.90;99.90
3360;DHT22;1693;49.602;11.046;2022-12-07T15:19:44;3.90;99.90
3360;DHT22;1693;49.602;11.046;2022-12-07T15:22:11;3.80;99.90
3360;DHT22;1693;49.602;11.046;2022-12-07T15:24:41;3.70;99.90
3360;DHT22;1693;49.602;11.046;2022-12-07T15:27:11;3.70;99.90
3360;DHT22;1693;49.602;11.046;2022-12-07T15:29:42;3.80;99.90
3360;DHT22;1693;49.602;11.046;2022-12-07T15:32:10;4.10;99.90
3360;DHT22;1693;49.602;11.046;2022-12-07T15:34:39;4.10;99.90
3360;DHT22;1693;49.602;11.046;2022-12-07T15:37:10;3.60;99.90
3360;DHT22;1693;49.602;11.046;2022-12-07T15:39:40;3.60;99.90
3360;DHT22;1693;49.602;11.046;2022-12-07T15:42:12;3.40;99.90
3360;DHT22;1693;49.602;11.046;2022-12-07T15:44:43;3.40;99.90
3360;DHT22;1693;49.602;11.046;2022-12-07T15:47:29;3.30;99.90
3360;DHT22;1693;49.602;11.046;2022-12-07T15:49:57;3.20;99.90
3360;DHT22;1693;49.602;11.046;2022-12-07T15:52:27;3.20;99.90
3360;DHT22;1693;49.602;11.046;2022-12-07T15:54:55;3.20;99.90
3360;DHT22;1693;49.602;11.046;2022-12-07T15:57:23;3.20;99.90
3360;DHT22;1693;49.602;11.046;2022-12-07T15:59:51;3.20;99.90
3360;DHT22;1693;49.602;11.046;2022-12-07T16:02:20;3.20;99.90
3360;DHT22;1693;49.602;11.046;2022-12-07T16:04:51;3.10;99.90
3360;DHT22;1693;49.602;11.046;2022-12-07T16:07:20;3.20;99.90
3360;DHT22;1693;49.602;11.046;2022-12-07T16:09:52;3.20;99.90
3360;DHT22;1693;49.602;11.046;2022-12-07T16:12:19;3.20;99.90
3360;DHT22;1693;49.602;11.046;2022-12-07T16:14:48;3.10;99.90
3360;DHT22;1693;49.602;11.046;2022-12-07T16:17:19;3.20;99.90
3360;DHT22;1693;49.602;11.046;2022-12-07T16:19:49;3.20;99.90
3360;DHT22;1693;49.602;11.046;2022-12-07T16:22:19;3.20;99.90
3360;DHT22;1693;49.602;11.046;2022-12-07T16:24:47;3.30;99.90
3360;DHT22;1693;49.602;11.046;2022-12-07T16:27:16;3.30;99.90
3360;DHT22;1693;49.602;11.046;2022-12-07T16:29:43;3.30;99.90
3360;DHT22;1693;49.602;11.046;2022-12-07T16:32:10;3.30;99.90
3360;DHT22;1693;49.602;11.046;2022-12-07T16:34:39;3.40;99.90
3360;DHT22;1693;49.602;11.046;2022-12-07T16:37:08;3.30;99.90
3360;DHT22;1693;49.602;11.046;2022-12-07T16:39:36;3.30;99.90
3360;DHT22;1693;49.602;11.046;2022-12-07T16:42:04;3.30;99.90
3360;DHT22;1693;49.602;11.046;2022-12-07T16:44:34;3.40;99.90